sensor_id;sensor_type;location;lat;lon;timestamp;pressure;altitude;pressure_sealevel;temperature;humidity
48563;BME280;34981;49.104;11.396;2023-03-23T00:01:09;98023.94;;;8.79;100.00
48563;BME280;34981;49.104;11.396;2023-03-23T00:03:36;98028.47;;;8.79;100.00
48563;BME280;34981;49.104;11.396;2023-03-23T00:06:02;98035.50;;;8.80;100.00
48563;BME280;34981;49.104;11.396;2023-03-23T00:08:31;98043.34;;;8.81;100.00
48563;BME280;34981;49.104;11.396;2023-03-23T00:10:57;98038.81;;;8.82;100.00
48563;BME280;34981;49.104;11.396;2023-03-23T00:13:24;98030.97;;;8.87;100.00
48563;BME280;34981;49.104;11.396;2023-03-23T00:15:50;98016.13;;;8.91;100.00
48563;BME280;34981;49.104;11.396;2023-03-23T00:18:19;97988.66;;;8.89;100.00
48563;BME280;34981;49.104;11.396;2023-03-23T00:20:50;97963.50;;;8.90;100.00
48563;BME280;34981;49.104;11.396;2023-03-23T00:23:17;97945.56;;;8.90;100.00
48563;BME280;34981;49.104;11.396;2023-03-23T00:25:45;97926.53;;;8.92;100.00
48563;BME280;34981;49.104;11.396;2023-03-23T00:28:11;97909.63;;;8.91;100.00
48563;BME280;34981;49.104;11.396;2023-03-23T00:30:39;97894.16;;;8.93;100.00
48563;BME280;34981;49.104;11.396;2023-03-23T00:33:05;97878.88;;;8.94;100.00
48563;BME280;34981;49.104;11.396;2023-03-23T00:35:31;97855.56;;;8.94;100.00
48563;BME280;34981;49.104;11.396;2023-03-23T00:37:57;97838.28;;;8.90;100.00
48563;BME280;34981;49.104;11.396;2023-03-23T00:40:26;97832.09;;;8.90;100.00
48563;BME280;34981;49.104;11.396;2023-03-23T00:42:53;97845.69;;;8.88;100.00
48563;BME280;34981;49.104;11.396;2023-03-23T00:45:19;97856.84;;;8.85;100.00
48563;BME280;34981;49.104;11.396;2023-03-23T00:47:45;97868.38;;;8.86;100.00
48563;BME280;34981;49.104;11.396;2023-03-23T00:50:12;97890.50;;;8.81;100.00
48563;BME280;34981;49.104;11.396;2023-03-23T00:52:40;97925.34;;;8.81;100.00
48563;BME280;34981;49.104;11.396;2023-03-23T00:55:06;97937.75;;;8.76;100.00
48563;BME280;34981;49.104;11.396;2023-03-23T00:57:32;97956.72;;;8.74;100.00
48563;BME280;34981;49.104;11.396;2023-03-23T00:59:58;97981.69;;;8.75;100.00
48563;BME280;34981;49.104;11.396;2023-03-23T01:02:24;97999.19;;;8.71;100.00
48563;BME280;34981;49.104;11.396;2023-03-23T01:04:50;98019.00;;;8.70;100.00
48563;BME280;34981;49.104;11.396;2023-03-23T01:07:19;98036.75;;;8.64;100.00
48563;BME280;34981;49.104;11.396;2023-03-23T01:09:49;98051.59;;;8.60;100.00
48563;BME280;34981;49.104;11.396;2023-03-23T01:12:15;98073.03;;;8.60;100.00
48563;BME280;34981;49.104;11.396;2023-03-23T01:14:41;98088.69;;;8.56;100.00
48563;BME280;34981;49.104;11.396;2023-03-23T01:17:08;98115.50;;;8.56;100.00
48563;BME280;34981;49.104;11.396;2023-03-23T01:19:35;98134.69;;;8.53;100.00
48563;BME280;34981;49.104;11.396;2023-03-23T01:22:01;98158.38;;;8.50;100.00
48563;BME280;34981;49.104;11.396;2023-03-23T01:24:27;98182.31;;;8.51;100.00
48563;BME280;34981;49.104;11.396;2023-03-23T01:26:53;98177.13;;;8.43;100.00
48563;BME280;34981;49.104;11.396;2023-03-23T01:29:19;98176.50;;;8.41;100.00
48563;BME280;34981;49.104;11.396;2023-03-23T01:31:45;98174.84;;;8.40;100.00
48563;BME280;34981;49.104;11.396;2023-03-23T01:34:12;98166.00;;;8.40;100.00
48563;BME280;34981;49.104;11.396;2023-03-23T01:36:38;98126.41;;;8.42;100.00
48563;BME280;34981;49.104;11.396;2023-03-23T01:39:05;98150.72;;;8.40;100.00
48563;BME280;34981;49.104;11.396;2023-03-23T01:41:32;98140.22;;;8.39;100.00
48563;BME280;34981;49.104;11.396;2023-03-23T01:44:05;98131.16;;;8.40;100.00
48563;BME280;34981;49.104;11.396;2023-03-23T01:46:37;98113.44;;;8.39;100.00
48563;BME280;34981;49.104;11.396;2023-03-23T01:49:06;98114.25;;;8.39;100.00
48563;BME280;34981;49.104;11.396;2023-03-23T01:51:35;98118.81;;;8.45;100.00
48563;BME280;34981;49.104;11.396;2023-03-23T01:54:04;98124.16;;;8.45;100.00
48563;BME280;34981;49.104;11.396;2023-03-23T01:56:35;98110.75;;;8.39;100.00
48563;BME280;34981;49.104;11.396;2023-03-23T01:59:04;98120.03;;;8.43;100.00
48563;BME280;34981;49.104;11.396;2023-03-23T02:01:31;98132.00;;;8.47;100.00
48563;BME280;34981;49.104;11.396;2023-03-23T02:04:02;98123.13;;;8.46;100.00
48563;BME280;34981;49.104;11.396;2023-03-23T02:06:28;98125.41;;;8.49;100.00
48563;BME280;34981;49.104;11.396;2023-03-23T02:09:04;98120.03;;;8.49;100.00
48563;BME280;34981;49.104;11.396;2023-03-23T02:11:32;98131.19;;;8.46;100.00
48563;BME280;34981;49.104;11.396;2023-03-23T02:13:58;98136.94;;;8.43;100.00
48563;BME280;34981;49.104;11.396;2023-03-23T02:16:35;98141.66;;;8.41;100.00
48563;BME280;34981;49.104;11.396;2023-03-23T02:19:22;98121.25;;;8.40;100.00
48563;BME280;34981;49.104;11.396;2023-03-23T02:32:43;98164.56;;;8.50;100.00
48563;BME280;34981;49.104;11.396;2023-03-23T02:35:13;98181.66;;;8.43;100.00
48563;BME280;34981;49.104;11.396;2023-03-23T02:37:48;98224.56;;;8.49;100.00
48563;BME280;34981;49.104;11.396;2023-03-23T02:40:26;98216.94;;;8.46;100.00
48563;BME280;34981;49.104;11.396;2023-03-23T02:42:54;98207.25;;;8.45;100.00
48563;BME280;34981;49.104;11.396;2023-03-23T02:45:22;98199.22;;;8.45;100.00
48563;BME280;34981;49.104;11.396;2023-03-23T02:47:51;98207.06;;;8.53;100.00
48563;BME280;34981;49.104;11.396;2023-03-23T02:50:19;98230.78;;;8.56;100.00
48563;BME280;34981;49.104;11.396;2023-03-23T02:52:47;98236.78;;;8.58;100.00
48563;BME280;34981;49.104;11.396;2023-03-23T02:57:52;98214.94;;;8.62;100.00
48563;BME280;34981;49.104;11.396;2023-03-23T03:00:19;98216.38;;;8.64;100.00
48563;BME280;34981;49.104;11.396;2023-03-23T03:02:47;98204.59;;;8.58;100.00
48563;BME280;34981;49.104;11.396;2023-03-23T03:10:19;98191.00;;;8.60;100.00
48563;BME280;34981;49.104;11.396;2023-03-23T03:17:51;98163.75;;;8.56;100.00
48563;BME280;34981;49.104;11.396;2023-03-23T03:20:19;98158.00;;;8.59;100.00
48563;BME280;34981;49.104;11.396;2023-03-23T03:22:47;98147.28;;;8.59;100.00
48563;BME280;34981;49.104;11.396;2023-03-23T03:25:14;98133.25;;;8.57;100.00
48563;BME280;34981;49.104;11.396;2023-03-23T03:27:42;98145.63;;;8.58;100.00
48563;BME280;34981;49.104;11.396;2023-03-23T03:30:16;98135.28;;;8.55;100.00
48563;BME280;34981;49.104;11.396;2023-03-23T03:32:45;98140.66;;;8.55;100.00
48563;BME280;34981;49.104;11.396;2023-03-23T03:35:15;98147.28;;;8.59;100.00
48563;BME280;34981;49.104;11.396;2023-03-23T03:37:41;98147.28;;;8.59;100.00
48563;BME280;34981;49.104;11.396;2023-03-23T03:40:09;98147.69;;;8.56;100.00
48563;BME280;34981;49.104;11.396;2023-03-23T03:42:39;98157.38;;;8.57;100.00
48563;BME280;34981;49.104;11.396;2023-03-23T03:45:06;98156.75;;;8.55;100.00
48563;BME280;34981;49.104;11.396;2023-03-23T03:47:33;98158.00;;;8.53;100.00
48563;BME280;34981;49.104;11.396;2023-03-23T03:49:59;98174.91;;;8.53;100.00
48563;BME280;34981;49.104;11.396;2023-03-23T03:52:25;98185.63;;;8.53;100.00
48563;BME280;34981;49.104;11.396;2023-03-23T03:54:51;98194.69;;;8.52;100.00
48563;BME280;34981;49.104;11.396;2023-03-23T03:57:17;98201.50;;;8.55;100.00
48563;BME280;34981;49.104;11.396;2023-03-23T04:00:02;98186.47;;;8.54;100.00
48563;BME280;34981;49.104;11.396;2023-03-23T04:02:42;98196.13;;;8.55;100.00
48563;BME280;34981;49.104;11.396;2023-03-23T04:05:09;98192.66;;;8.61;100.00
48563;BME280;34981;49.104;11.396;2023-03-23T04:07:36;98195.13;;;8.63;100.00
48563;BME280;34981;49.104;11.396;2023-03-23T04:10:07;98182.34;;;8.65;100.00
48563;BME280;34981;49.104;11.396;2023-03-23T04:12:34;98161.72;;;8.65;100.00
48563;BME280;34981;49.104;11.396;2023-03-23T04:15:19;98143.78;;;8.66;100.00
48563;BME280;34981;49.104;11.396;2023-03-23T04:17:47;98143.78;;;8.66;100.00
48563;BME280;34981;49.104;11.396;2023-03-23T04:20:13;98141.09;;;8.66;100.00
48563;BME280;34981;49.104;11.396;2023-03-23T04:22:50;98124.81;;;8.61;100.00
48563;BME280;34981;49.104;11.396;2023-03-23T04:25:19;98126.03;;;8.58;100.00
48563;BME280;34981;49.104;11.396;2023-03-23T04:27:49;98126.88;;;8.58;100.00
48563;BME280;34981;49.104;11.396;2023-03-23T04:30:20;98138.22;;;8.61;100.00
48563;BME280;34981;49.104;11.396;2023-03-23T04:32:59;98132.03;;;8.60;100.00
48563;BME280;34981;49.104;11.396;2023-03-23T04:35:28;98142.75;;;8.60;100.00
48563;BME280;34981;49.104;11.396;2023-03-23T04:38:07;98146.47;;;8.59;100.00
48563;BME280;34981;49.104;11.396;2023-03-23T04:40:39;98147.47;;;8.58;100.00
48563;BME280;34981;49.104;11.396;2023-03-23T04:43:20;98156.75;;;8.55;100.00
48563;BME280;34981;49.104;11.396;2023-03-23T04:46:15;98161.28;;;8.55;100.00
48563;BME280;34981;49.104;11.396;2023-03-23T04:48:45;98170.56;;;8.52;100.00
48563;BME280;34981;49.104;11.396;2023-03-23T04:51:21;98161.69;;;8.52;100.00
48563;BME280;34981;49.104;11.396;2023-03-23T04:53:50;98171.41;;;8.53;100.00
48563;BME280;34981;49.104;11.396;2023-03-23T04:56:16;98168.53;;;8.54;100.00
48563;BME280;34981;49.104;11.396;2023-03-23T04:58:45;98155.72;;;8.56;100.00
48563;BME280;34981;49.104;11.396;2023-03-23T05:01:17;98142.13;;;8.58;100.00
48563;BME280;34981;49.104;11.396;2023-03-23T05:03:53;98121.50;;;8.58;100.00
48563;BME280;34981;49.104;11.396;2023-03-23T05:06:20;98112.44;;;8.59;100.00
48563;BME280;34981;49.104;11.396;2023-03-23T05:08:49;98099.03;;;8.59;100.00
48563;BME280;34981;49.104;11.396;2023-03-23T05:11:16;98083.13;;;8.58;100.00
48563;BME280;34981;49.104;11.396;2023-03-23T05:13:43;98059.22;;;8.56;100.00
48563;BME280;34981;49.104;11.396;2023-03-23T05:16:11;98049.50;;;8.55;100.00
48563;BME280;34981;49.104;11.396;2023-03-23T05:18:39;98044.16;;;8.55;100.00
48563;BME280;34981;49.104;11.396;2023-03-23T05:21:08;98030.56;;;8.57;100.00
48563;BME280;34981;49.104;11.396;2023-03-23T05:23:37;98017.16;;;8.57;100.00
48563;BME280;34981;49.104;11.396;2023-03-23T05:26:18;97998.19;;;8.58;100.00
48563;BME280;34981;49.104;11.396;2023-03-23T05:28:44;97988.50;;;8.57;100.00
48563;BME280;34981;49.104;11.396;2023-03-23T05:31:23;97972.19;;;8.59;100.00
48563;BME280;34981;49.104;11.396;2023-03-23T05:33:50;97966.00;;;8.58;100.00
48563;BME280;34981;49.104;11.396;2023-03-23T05:36:35;97949.31;;;8.56;100.00
48563;BME280;34981;49.104;11.396;2023-03-23T05:39:35;97940.44;;;8.56;100.00
48563;BME280;34981;49.104;11.396;2023-03-23T05:42:28;97933.22;;;8.56;100.00
48563;BME280;34981;49.104;11.396;2023-03-23T05:45:14;97920.66;;;8.57;100.00
48563;BME280;34981;49.104;11.396;2023-03-23T05:47:41;97919.81;;;8.56;100.00
48563;BME280;34981;49.104;11.396;2023-03-23T05:50:12;97905.38;;;8.57;100.00
48563;BME280;34981;49.104;11.396;2023-03-23T05:52:39;97897.34;;;8.57;100.00
48563;BME280;34981;49.104;11.396;2023-03-23T05:55:08;97891.97;;;8.57;100.00
48563;BME280;34981;49.104;11.396;2023-03-23T05:57:37;97882.91;;;8.58;100.00
48563;BME280;34981;49.104;11.396;2023-03-23T06:00:07;97881.88;;;8.59;100.00
48563;BME280;34981;49.104;11.396;2023-03-23T06:02:54;97876.72;;;8.58;100.00
48563;BME280;34981;49.104;11.396;2023-03-23T06:05:27;97900.03;;;8.57;100.00
48563;BME280;34981;49.104;11.396;2023-03-23T06:07:55;97934.88;;;8.57;100.00
48563;BME280;34981;49.104;11.396;2023-03-23T06:10:21;97953.63;;;8.57;100.00
48563;BME280;34981;49.104;11.396;2023-03-23T06:12:54;97976.94;;;8.57;100.00
48563;BME280;34981;49.104;11.396;2023-03-23T06:15:34;97984.97;;;8.57;100.00
48563;BME280;34981;49.104;11.396;2023-03-23T06:18:12;98014.47;;;8.57;100.00
48563;BME280;34981;49.104;11.396;2023-03-23T06:20:58;98016.31;;;8.56;100.00
48563;BME280;34981;49.104;11.396;2023-03-23T06:23:38;98032.00;;;8.59;100.00
48563;BME280;34981;49.104;11.396;2023-03-23T06:26:07;98043.34;;;8.62;100.00
48563;BME280;34981;49.104;11.396;2023-03-23T06:28:35;98050.97;;;8.65;100.00
48563;BME280;34981;49.104;11.396;2023-03-23T06:31:01;98046.63;;;8.64;100.00
48563;BME280;34981;49.104;11.396;2023-03-23T06:33:27;98060.88;;;8.64;100.00
48563;BME280;34981;49.104;11.396;2023-03-23T06:36:25;98056.34;;;8.65;100.00
48563;BME280;34981;49.104;11.396;2023-03-23T06:39:19;98067.69;;;8.67;100.00
48563;BME280;34981;49.104;11.396;2023-03-23T06:41:56;98087.09;;;8.69;100.00
48563;BME280;34981;49.104;11.396;2023-03-23T06:44:22;98085.00;;;8.71;100.00
48563;BME280;34981;49.104;11.396;2023-03-23T06:46:48;98088.31;;;8.73;100.00
48563;BME280;34981;49.104;11.396;2023-03-23T06:49:22;98091.63;;;8.75;100.00
48563;BME280;34981;49.104;11.396;2023-03-23T06:51:59;98088.31;;;8.79;100.00
48563;BME280;34981;49.104;11.396;2023-03-23T06:54:27;98101.91;;;8.84;100.00
48563;BME280;34981;49.104;11.396;2023-03-23T06:56:54;98101.94;;;8.91;100.00
48563;BME280;34981;49.104;11.396;2023-03-23T06:59:20;98104.00;;;8.95;100.00
48563;BME280;34981;49.104;11.396;2023-03-23T07:01:46;98094.91;;;9.03;100.00
48563;BME280;34981;49.104;11.396;2023-03-23T07:04:14;98088.31;;;9.12;100.00
48563;BME280;34981;49.104;11.396;2023-03-23T07:07:00;98077.38;;;9.20;100.00
48563;BME280;34981;49.104;11.396;2023-03-23T07:09:26;98069.72;;;9.24;100.00
48563;BME280;34981;49.104;11.396;2023-03-23T07:11:53;98064.75;;;9.34;100.00
48563;BME280;34981;49.104;11.396;2023-03-23T07:14:31;98044.47;;;9.38;100.00
48563;BME280;34981;49.104;11.396;2023-03-23T07:16:57;98029.81;;;9.41;100.00
48563;BME280;34981;49.104;11.396;2023-03-23T07:19:24;98007.50;;;9.47;100.00
48563;BME280;34981;49.104;11.396;2023-03-23T07:21:50;97994.28;;;9.45;100.00
48563;BME280;34981;49.104;11.396;2023-03-23T07:24:19;97980.00;;;9.51;100.00
48563;BME280;34981;49.104;11.396;2023-03-23T07:27:08;97948.63;;;9.52;100.00
48563;BME280;34981;49.104;11.396;2023-03-23T07:29:36;97937.47;;;9.55;100.00
48563;BME280;34981;49.104;11.396;2023-03-23T07:32:10;97915.78;;;9.56;100.00
48563;BME280;34981;49.104;11.396;2023-03-23T07:34:37;97910.34;;;9.63;100.00
48563;BME280;34981;49.104;11.396;2023-03-23T07:37:12;97890.69;;;9.69;100.00
48563;BME280;34981;49.104;11.396;2023-03-23T07:39:41;97877.47;;;9.67;100.00
48563;BME280;34981;49.104;11.396;2023-03-23T07:42:09;97864.63;;;9.76;100.00
48563;BME280;34981;49.104;11.396;2023-03-23T07:44:43;97850.91;;;9.84;100.00
48563;BME280;34981;49.104;11.396;2023-03-23T07:47:12;97835.41;;;9.86;100.00
48563;BME280;34981;49.104;11.396;2023-03-23T07:49:38;97821.53;;;9.89;100.00
48563;BME280;34981;49.104;11.396;2023-03-23T07:52:24;97806.19;;;9.96;100.00
48563;BME280;34981;49.104;11.396;2023-03-23T07:54:51;97789.16;;;10.02;100.00
48563;BME280;34981;49.104;11.396;2023-03-23T07:57:31;97777.31;;;10.10;100.00
48563;BME280;34981;49.104;11.396;2023-03-23T07:59:58;97760.16;;;10.11;100.00
48563;BME280;34981;49.104;11.396;2023-03-23T08:02:26;97736.09;;;10.23;100.00
48563;BME280;34981;49.104;11.396;2023-03-23T08:05:13;97705.72;;;10.22;100.00
48563;BME280;34981;49.104;11.396;2023-03-23T08:07:45;97702.25;;;10.33;100.00
48563;BME280;34981;49.104;11.396;2023-03-23T08:10:40;97670.97;;;10.39;100.00
48563;BME280;34981;49.104;11.396;2023-03-23T08:13:26;97654.25;;;10.37;100.00
48563;BME280;34981;49.104;11.396;2023-03-23T08:16:32;97643.41;;;10.43;100.00
48563;BME280;34981;49.104;11.396;2023-03-23T08:19:34;97620.84;;;10.44;100.00
48563;BME280;34981;49.104;11.396;2023-03-23T08:22:21;97624.19;;;10.58;100.00
48563;BME280;34981;49.104;11.396;2023-03-23T08:25:16;97596.59;;;10.63;100.00
48563;BME280;34981;49.104;11.396;2023-03-23T08:28:03;97574.19;;;10.80;100.00
48563;BME280;34981;49.104;11.396;2023-03-23T08:30:58;97546.03;;;10.95;100.00
48563;BME280;34981;49.104;11.396;2023-03-23T08:33:43;97546.59;;;11.20;100.00
48563;BME280;34981;49.104;11.396;2023-03-23T08:36:41;97493.47;;;11.27;100.00
48563;BME280;34981;49.104;11.396;2023-03-23T08:39:23;97449.00;;;11.24;100.00
48563;BME280;34981;49.104;11.396;2023-03-23T08:41:53;97441.34;;;11.33;100.00
48563;BME280;34981;49.104;11.396;2023-03-23T08:44:42;97383.63;;;11.41;100.00
48563;BME280;34981;49.104;11.396;2023-03-23T08:47:16;97365.50;;;11.36;100.00
48563;BME280;34981;49.104;11.396;2023-03-23T08:50:02;97339.25;;;11.43;100.00
48563;BME280;34981;49.104;11.396;2023-03-23T08:52:29;97315.59;;;11.45;100.00
48563;BME280;34981;49.104;11.396;2023-03-23T08:55:24;97291.75;;;11.37;100.00
48563;BME280;34981;49.104;11.396;2023-03-23T08:58:12;97282.91;;;11.53;100.00
48563;BME280;34981;49.104;11.396;2023-03-23T09:00:50;97257.56;;;11.54;100.00
48563;BME280;34981;49.104;11.396;2023-03-23T09:03:37;97239.88;;;11.58;100.00
48563;BME280;34981;49.104;11.396;2023-03-23T09:06:32;97235.63;;;11.62;100.00
48563;BME280;34981;49.104;11.396;2023-03-23T09:08:59;97232.91;;;11.74;100.00
48563;BME280;34981;49.104;11.396;2023-03-23T09:11:26;97214.75;;;11.86;100.00
48563;BME280;34981;49.104;11.396;2023-03-23T09:13:52;97186.50;;;11.89;100.00
48563;BME280;34981;49.104;11.396;2023-03-23T09:16:18;97161.22;;;11.90;100.00
48563;BME280;34981;49.104;11.396;2023-03-23T09:18:44;97131.28;;;11.91;100.00
48563;BME280;34981;49.104;11.396;2023-03-23T09:21:10;97125.81;;;12.03;100.00
48563;BME280;34981;49.104;11.396;2023-03-23T09:23:36;97089.72;;;12.04;100.00
48563;BME280;34981;49.104;11.396;2023-03-23T09:26:02;97088.47;;;11.90;100.00
48563;BME280;34981;49.104;11.396;2023-03-23T09:28:29;97101.75;;;11.96;100.00
48563;BME280;34981;49.104;11.396;2023-03-23T09:30:55;97130.75;;;12.11;100.00
48563;BME280;34981;49.104;11.396;2023-03-23T09:33:23;97114.03;;;12.09;100.00
48563;BME280;34981;49.104;11.396;2023-03-23T09:35:50;97115.31;;;12.06;100.00
48563;BME280;34981;49.104;11.396;2023-03-23T09:38:16;97119.91;;;12.06;100.00
48563;BME280;34981;49.104;11.396;2023-03-23T09:40:46;97136.25;;;12.21;100.00
48563;BME280;34981;49.104;11.396;2023-03-23T09:48:56;97100.28;;;12.32;100.00
48563;BME280;34981;49.104;11.396;2023-03-23T09:51:32;97088.88;;;12.25;100.00
48563;BME280;34981;49.104;11.396;2023-03-23T09:54:01;97079.28;;;12.34;100.00
48563;BME280;34981;49.104;11.396;2023-03-23T09:56:30;97070.47;;;12.44;100.00
48563;BME280;34981;49.104;11.396;2023-03-23T09:58:59;97051.69;;;12.27;100.00
48563;BME280;34981;49.104;11.396;2023-03-23T10:01:30;97032.03;;;12.27;100.00
48563;BME280;34981;49.104;11.396;2023-03-23T10:04:01;97032.31;;;12.30;100.00
48563;BME280;34981;49.104;11.396;2023-03-23T10:06:29;97017.81;;;12.36;100.00
48563;BME280;34981;49.104;11.396;2023-03-23T10:08:56;97010.13;;;12.50;100.00
48563;BME280;34981;49.104;11.396;2023-03-23T10:19:33;96842.31;;;12.43;100.00
48563;BME280;34981;49.104;11.396;2023-03-23T10:22:02;96828.19;;;12.63;100.00
48563;BME280;34981;49.104;11.396;2023-03-23T10:24:35;96781.75;;;12.61;100.00
48563;BME280;34981;49.104;11.396;2023-03-23T10:27:08;96725.94;;;12.66;100.00
48563;BME280;34981;49.104;11.396;2023-03-23T10:29:37;96691.72;;;12.77;100.00
48563;BME280;34981;49.104;11.396;2023-03-23T10:32:09;96636.16;;;12.76;100.00
48563;BME280;34981;49.104;11.396;2023-03-23T10:34:50;96599.06;;;12.36;100.00
48563;BME280;34981;49.104;11.396;2023-03-23T10:37:20;96617.50;;;12.64;100.00
48563;BME280;34981;49.104;11.396;2023-03-23T10:39:54;96584.66;;;12.98;100.00
48563;BME280;34981;49.104;11.396;2023-03-23T10:44:50;96470.22;;;12.83;100.00
48563;BME280;34981;49.104;11.396;2023-03-23T10:47:16;96476.41;;;12.79;100.00
48563;BME280;34981;49.104;11.396;2023-03-23T10:49:51;96433.81;;;12.71;100.00
48563;BME280;34981;49.104;11.396;2023-03-23T10:54:49;96389.28;;;12.78;100.00
48563;BME280;34981;49.104;11.396;2023-03-23T10:57:21;96368.53;;;12.84;100.00
48563;BME280;34981;49.104;11.396;2023-03-23T10:59:48;96338.75;;;13.04;100.00
48563;BME280;34981;49.104;11.396;2023-03-23T11:02:14;96291.66;;;12.76;100.00
48563;BME280;34981;49.104;11.396;2023-03-23T11:04:45;96292.84;;;13.09;100.00
48563;BME280;34981;49.104;11.396;2023-03-23T11:07:18;96272.34;;;13.08;100.00
48563;BME280;34981;49.104;11.396;2023-03-23T11:09:55;96280.59;;;13.37;100.00
48563;BME280;34981;49.104;11.396;2023-03-23T11:12:22;96218.56;;;13.66;100.00
48563;BME280;34981;49.104;11.396;2023-03-23T11:14:49;96146.03;;;13.78;100.00
48563;BME280;34981;49.104;11.396;2023-03-23T11:17:22;96107.06;;;13.84;100.00
48563;BME280;34981;49.104;11.396;2023-03-23T11:19:50;96078.13;;;13.61;100.00
48563;BME280;34981;49.104;11.396;2023-03-23T11:22:19;96097.03;;;13.61;100.00
48563;BME280;34981;49.104;11.396;2023-03-23T11:24:47;96078.75;;;13.53;100.00
48563;BME280;34981;49.104;11.396;2023-03-23T11:27:16;96085.06;;;13.67;100.00
48563;BME280;34981;49.104;11.396;2023-03-23T11:29:46;96027.44;;;14.00;100.00
48563;BME280;34981;49.104;11.396;2023-03-23T11:32:14;95987.19;;;14.18;100.00
48563;BME280;34981;49.104;11.396;2023-03-23T11:34:41;95973.66;;;13.99;100.00
48563;BME280;34981;49.104;11.396;2023-03-23T11:37:12;95956.59;;;14.22;100.00
48563;BME280;34981;49.104;11.396;2023-03-23T11:40:01;95912.59;;;13.98;100.00
48563;BME280;34981;49.104;11.396;2023-03-23T11:42:44;95890.00;;;14.26;100.00
48563;BME280;34981;49.104;11.396;2023-03-23T11:47:53;95891.63;;;13.90;100.00
48563;BME280;34981;49.104;11.396;2023-03-23T11:50:25;95877.91;;;14.24;100.00
48563;BME280;34981;49.104;11.396;2023-03-23T11:52:55;95864.16;;;14.39;100.00
48563;BME280;34981;49.104;11.396;2023-03-23T11:55:28;95857.06;;;14.43;100.00
48563;BME280;34981;49.104;11.396;2023-03-23T11:57:56;95843.66;;;14.33;100.00
48563;BME280;34981;49.104;11.396;2023-03-23T12:00:25;95809.75;;;14.08;100.00
48563;BME280;34981;49.104;11.396;2023-03-23T12:02:55;95818.00;;;14.17;100.00
48563;BME280;34981;49.104;11.396;2023-03-23T12:08:13;95859.53;;;14.39;100.00
48563;BME280;34981;49.104;11.396;2023-03-23T12:10:51;95874.66;;;14.22;100.00
48563;BME280;34981;49.104;11.396;2023-03-23T12:26:25;95915.59;;;14.15;100.00
48563;BME280;34981;49.104;11.396;2023-03-23T12:31:39;95932.13;;;14.51;100.00
48563;BME280;34981;49.104;11.396;2023-03-23T12:41:57;95902.22;;;14.24;100.00
48563;BME280;34981;49.104;11.396;2023-03-23T12:44:49;95911.31;;;14.65;100.00
48563;BME280;34981;49.104;11.396;2023-03-23T12:49:48;95835.59;;;14.79;100.00
48563;BME280;34981;49.104;11.396;2023-03-23T12:57:14;95828.31;;;14.47;100.00
48563;BME280;34981;49.104;11.396;2023-03-23T13:02:20;95873.97;;;14.16;100.00
48563;BME280;34981;49.104;11.396;2023-03-23T13:04:50;95884.72;;;14.02;100.00
48563;BME280;34981;49.104;11.396;2023-03-23T13:07:19;95903.72;;;14.67;100.00
48563;BME280;34981;49.104;11.396;2023-03-23T13:12:20;95864.50;;;14.51;100.00
48563;BME280;34981;49.104;11.396;2023-03-23T13:14:55;95873.00;;;14.45;100.00
48563;BME280;34981;49.104;11.396;2023-03-23T13:17:43;95878.97;;;14.41;100.00
48563;BME280;34981;49.104;11.396;2023-03-23T13:22:44;95869.81;;;14.56;100.00
48563;BME280;34981;49.104;11.396;2023-03-23T13:25:16;95803.59;;;14.35;100.00
48563;BME280;34981;49.104;11.396;2023-03-23T13:27:55;95803.72;;;14.11;100.00
48563;BME280;34981;49.104;11.396;2023-03-23T13:30:22;95819.63;;;14.31;100.00
48563;BME280;34981;49.104;11.396;2023-03-23T13:32:51;95810.28;;;14.56;100.00
48563;BME280;34981;49.104;11.396;2023-03-23T13:35:18;95775.06;;;14.29;100.00
48563;BME280;34981;49.104;11.396;2023-03-23T13:37:48;95783.75;;;14.72;100.00
48563;BME280;34981;49.104;11.396;2023-03-23T13:40:24;95719.09;;;14.98;100.00
48563;BME280;34981;49.104;11.396;2023-03-23T13:42:52;95667.50;;;14.80;100.00
48563;BME280;34981;49.104;11.396;2023-03-23T13:47:45;95631.72;;;14.97;100.00
48563;BME280;34981;49.104;11.396;2023-03-23T13:50:24;95592.31;;;14.91;100.00
48563;BME280;34981;49.104;11.396;2023-03-23T13:52:52;95588.47;;;14.56;100.00
48563;BME280;34981;49.104;11.396;2023-03-23T14:13:02;95621.75;;;14.57;100.00
48563;BME280;34981;49.104;11.396;2023-03-23T14:15:29;95625.56;;;14.56;100.00
48563;BME280;34981;49.104;11.396;2023-03-23T14:17:56;95639.56;;;14.71;100.00
48563;BME280;34981;49.104;11.396;2023-03-23T14:20:27;95633.88;;;14.59;100.00
48563;BME280;34981;49.104;11.396;2023-03-23T14:22:55;95641.19;;;14.45;100.00
48563;BME280;34981;49.104;11.396;2023-03-23T14:25:22;95659.44;;;14.53;100.00
48563;BME280;34981;49.104;11.396;2023-03-23T14:27:51;95646.69;;;14.40;100.00
48563;BME280;34981;49.104;11.396;2023-03-23T14:30:19;95655.97;;;14.34;100.00
48563;BME280;34981;49.104;11.396;2023-03-23T14:32:46;95694.41;;;14.17;100.00
48563;BME280;34981;49.104;11.396;2023-03-23T14:35:13;95702.63;;;14.26;100.00
48563;BME280;34981;49.104;11.396;2023-03-23T14:37:43;95695.44;;;14.35;100.00
48563;BME280;34981;49.104;11.396;2023-03-23T14:40:12;95706.78;;;14.37;100.00
48563;BME280;34981;49.104;11.396;2023-03-23T14:42:39;95737.56;;;14.09;100.00
48563;BME280;34981;49.104;11.396;2023-03-23T14:45:06;95767.13;;;14.19;100.00
48563;BME280;34981;49.104;11.396;2023-03-23T14:47:33;95784.16;;;14.33;100.00
48563;BME280;34981;49.104;11.396;2023-03-23T14:50:00;95789.03;;;14.50;100.00
48563;BME280;34981;49.104;11.396;2023-03-23T14:52:28;95769.19;;;14.40;100.00
48563;BME280;34981;49.104;11.396;2023-03-23T14:54:54;95793.38;;;14.32;100.00